createdAt,value
2018-04-19T00:00:07.630Z,96.20
2018-04-19T00:01:16.259Z,96.00
2018-04-19T00:02:21.970Z,95.70
2018-04-19T00:03:27.107Z,95.70
2018-04-19T00:04:34.111Z,95.70
2018-04-19T00:05:38.171Z,95.70
2018-04-19T00:06:43.278Z,95.70
2018-04-19T00:07:48.173Z,95.60
2018-04-19T00:08:53.757Z,95.70
2018-04-19T00:10:00.221Z,95.40
2018-04-19T00:11:06.888Z,95.60
2018-04-19T00:12:12.579Z,95.30
2018-04-19T00:13:16.687Z,95.40
2018-04-19T00:14:20.749Z,95.20
2018-04-19T00:15:25.520Z,95.10
2018-04-19T00:16:31.173Z,94.90
2018-04-19T00:17:37.912Z,94.20
2018-04-19T00:18:42.023Z,94.20
2018-04-19T00:19:46.260Z,94.00
2018-04-19T00:20:51.169Z,93.70
2018-04-19T00:21:55.929Z,93.70
2018-04-19T00:23:00.799Z,93.50
2018-04-19T00:24:05.687Z,93.10
2018-04-19T00:25:10.432Z,93.30
2018-04-19T00:26:17.091Z,93.30
2018-04-19T00:27:22.296Z,93.30
2018-04-19T00:28:27.076Z,93.30
2018-04-19T00:29:32.582Z,93.50
2018-04-19T00:30:37.252Z,93.60
2018-04-19T00:31:41.477Z,93.80
2018-04-19T00:32:46.248Z,94.00
2018-04-19T00:33:50.994Z,94.20
2018-04-19T00:34:55.102Z,94.40
2018-04-19T00:36:00.240Z,94.40
2018-04-19T00:37:05.244Z,94.40
2018-04-19T00:38:10.864Z,94.40
2018-04-19T00:39:15.759Z,94.50
2018-04-19T00:40:20.642Z,94.40
2018-04-19T00:41:26.558Z,94.40
2018-04-19T00:42:31.757Z,94.20
2018-04-19T00:43:38.013Z,94.80
2018-04-19T00:44:44.867Z,94.80
2018-04-19T00:45:50.802Z,94.70
2018-04-19T00:46:56.106Z,94.70
2018-04-19T00:48:01.074Z,94.70
2018-04-19T00:49:07.440Z,94.50
2018-04-19T00:50:12.299Z,94.30
2018-04-19T00:51:17.186Z,94.30
2018-04-19T00:52:21.348Z,94.40
2018-04-19T00:53:28.282Z,94.20
2018-04-19T00:54:33.993Z,94.10
2018-04-19T00:55:39.688Z,94.50
2018-04-19T00:56:45.305Z,94.50
2018-04-19T00:57:50.385Z,94.80
2018-04-19T00:58:55.657Z,95.50
2018-04-19T01:00:01.821Z,95.30
2018-04-19T01:01:06.360Z,95.30
2018-04-19T01:02:11.488Z,95.50
2018-04-19T01:03:17.460Z,95.50
2018-04-19T01:04:23.673Z,95.40
2018-04-19T01:05:27.813Z,95.40
2018-04-19T01:06:33.618Z,95.10
2018-04-19T01:07:38.205Z,95.10
2018-04-19T01:08:42.849Z,95.00
2018-04-19T01:09:48.247Z,95.50
2018-04-19T01:10:53.305Z,95.20
2018-04-19T01:11:58.749Z,95.10
2018-04-19T01:13:04.201Z,95.10
2018-04-19T01:14:09.976Z,95.00
2018-04-19T01:15:14.789Z,94.90
2018-04-19T01:16:19.909Z,94.70
2018-04-19T01:17:25.643Z,94.90
2018-04-19T01:18:30.575Z,95.20
2018-04-19T01:19:35.593Z,95.30
2018-04-19T01:20:41.673Z,95.20
2018-04-19T01:21:46.554Z,95.60
2018-04-19T01:22:51.645Z,95.80
2018-04-19T01:23:56.719Z,96.00
2018-04-19T01:25:01.850Z,96.40
2018-04-19T01:26:06.035Z,96.80
2018-04-19T01:27:11.527Z,97.00
2018-04-19T01:28:17.417Z,97.60
2018-04-19T01:29:22.397Z,97.60
2018-04-19T01:30:27.718Z,98.20
2018-04-19T01:31:33.758Z,98.20
2018-04-19T01:32:38.863Z,98.40
2018-04-19T01:33:43.799Z,98.40
2018-04-19T01:34:49.827Z,98.50
2018-04-19T01:36:29.272Z,98.60
2018-04-19T01:37:35.317Z,98.60
2018-04-19T01:38:40.066Z,98.60
2018-04-19T01:39:45.144Z,98.70
2018-04-19T01:40:51.370Z,98.70
2018-04-19T01:41:57.790Z,98.50
2018-04-19T01:43:02.628Z,98.50
2018-04-19T01:44:07.677Z,98.50
2018-04-19T01:45:12.844Z,98.50
2018-04-19T01:46:19.322Z,98.70
2018-04-19T01:47:23.525Z,98.80
2018-04-19T01:48:28.381Z,98.90
2018-04-19T01:49:34.074Z,99.00
2018-04-19T01:50:39.144Z,98.90
2018-04-19T01:51:45.367Z,99.10
2018-04-19T01:52:49.457Z,99.10
2018-04-19T01:53:54.018Z,99.20
2018-04-19T01:54:59.442Z,99.20
2018-04-19T01:56:05.902Z,99.40
2018-04-19T01:57:10.410Z,99.40
2018-04-19T01:58:16.945Z,99.50
2018-04-19T01:59:23.853Z,99.50
2018-04-19T02:00:29.698Z,99.50
2018-04-19T02:01:36.203Z,99.60
2018-04-19T02:02:40.321Z,99.50
2018-04-19T02:03:44.423Z,99.40
2018-04-19T02:04:49.022Z,99.40
2018-04-19T02:05:53.187Z,99.30
2018-04-19T02:06:57.426Z,99.30
2018-04-19T02:08:02.407Z,99.30
2018-04-19T02:09:07.870Z,99.30
2018-04-19T02:10:12.750Z,99.10
2018-04-19T02:11:18.354Z,99.10
2018-04-19T02:12:23.178Z,99.10
2018-04-19T02:13:29.365Z,99.20
2018-04-19T02:14:35.932Z,99.20
2018-04-19T02:15:41.063Z,99.30
2018-04-19T02:16:46.516Z,99.00
2018-04-19T02:17:50.803Z,99.20
2018-04-19T02:18:54.903Z,99.10
2018-04-19T02:19:59.480Z,99.20
2018-04-19T02:21:03.573Z,99.60
2018-04-19T02:22:07.906Z,99.70
2018-04-19T02:23:12.008Z,99.70
2018-04-19T02:24:17.112Z,99.70
2018-04-19T02:25:21.453Z,99.70
2018-04-19T02:26:26.665Z,99.50
2018-04-19T02:27:31.799Z,99.40
2018-04-19T02:28:37.015Z,99.40
2018-04-19T02:29:41.853Z,99.40
2018-04-19T02:30:47.588Z,99.40
2018-04-19T02:31:52.468Z,99.60
2018-04-19T02:32:56.572Z,99.60
2018-04-19T02:34:00.877Z,99.50
2018-04-19T02:35:04.989Z,99.50
2018-04-19T02:36:09.480Z,99.50
2018-04-19T02:37:13.591Z,99.50
2018-04-19T02:38:17.639Z,99.60
2018-04-19T02:39:22.772Z,99.60
2018-04-19T02:40:26.846Z,99.60
2018-04-19T02:41:31.008Z,99.80
2018-04-19T02:42:35.288Z,99.90
2018-04-19T02:43:39.829Z,99.90
2018-04-19T02:44:44.059Z,99.90
2018-04-19T02:45:48.514Z,99.90
2018-04-19T02:46:53.714Z,99.90
2018-04-19T02:47:58.541Z,99.90
2018-04-19T02:49:04.361Z,99.90
2018-04-19T02:50:08.809Z,99.90
2018-04-19T02:51:12.914Z,99.90
2018-04-19T02:52:20.458Z,99.90
2018-04-19T02:53:24.577Z,99.90
2018-04-19T02:54:30.321Z,99.90
2018-04-19T02:55:35.117Z,99.90
2018-04-19T02:56:39.994Z,99.90
2018-04-19T02:57:44.248Z,99.90
2018-04-19T02:58:49.056Z,99.90
2018-04-19T02:59:54.313Z,99.90
2018-04-19T03:00:58.440Z,99.90
2018-04-19T03:02:02.697Z,99.90
2018-04-19T03:03:07.845Z,99.90
2018-04-19T03:04:12.038Z,99.90
2018-04-19T03:05:16.852Z,99.90
2018-04-19T03:06:21.037Z,99.90
2018-04-19T03:07:25.462Z,99.90
2018-04-19T03:08:29.571Z,99.90
2018-04-19T03:09:34.389Z,99.90
2018-04-19T03:10:39.877Z,99.90
2018-04-19T03:11:44.701Z,99.90
2018-04-19T03:12:48.992Z,99.90
2018-04-19T03:13:53.091Z,99.90
2018-04-19T03:14:57.809Z,99.90
2018-04-19T03:16:02.783Z,99.90
2018-04-19T03:17:07.410Z,99.90
2018-04-19T03:18:12.760Z,99.90
2018-04-19T03:19:18.006Z,99.90
2018-04-19T03:20:22.182Z,99.90
2018-04-19T03:21:26.257Z,99.90
2018-04-19T03:22:30.729Z,99.90
2018-04-19T03:23:36.139Z,99.90
2018-04-19T03:24:41.076Z,99.90
2018-04-19T03:25:45.611Z,99.90
2018-04-19T03:26:50.531Z,99.90
2018-04-19T03:27:55.014Z,99.90
2018-04-19T03:28:59.426Z,99.90
2018-04-19T03:30:03.852Z,99.90
2018-04-19T03:31:08.018Z,99.90
2018-04-19T03:32:12.214Z,99.90
2018-04-19T03:33:16.696Z,99.90
2018-04-19T03:34:20.856Z,99.90
2018-04-19T03:35:26.144Z,99.90
2018-04-19T03:36:30.327Z,99.90
2018-04-19T03:37:34.631Z,99.90
2018-04-19T03:38:38.771Z,99.90
2018-04-19T03:39:42.866Z,99.90
2018-04-19T03:40:47.370Z,99.90
2018-04-19T03:41:51.480Z,99.90
2018-04-19T03:42:56.243Z,99.90
2018-04-19T03:44:00.398Z,99.90
2018-04-19T03:45:05.727Z,99.80
2018-04-19T03:46:10.709Z,99.80
2018-04-19T03:47:15.069Z,99.70
2018-04-19T03:48:20.062Z,99.60
2018-04-19T03:49:24.255Z,99.30
2018-04-19T03:50:28.886Z,99.20
2018-04-19T03:51:33.332Z,99.10
2018-04-19T03:52:37.684Z,99.20
2018-04-19T03:53:42.077Z,99.10
2018-04-19T03:54:46.272Z,99.10
2018-04-19T03:55:51.089Z,99.00
2018-04-19T03:56:55.945Z,98.80
2018-04-19T03:58:01.501Z,98.80
2018-04-19T03:59:05.612Z,98.80
2018-04-19T04:00:10.392Z,99.00
2018-04-19T04:01:16.312Z,98.90
2018-04-19T04:02:21.389Z,99.00
2018-04-19T04:03:26.645Z,98.90
2018-04-19T04:04:30.784Z,98.90
2018-04-19T04:05:35.156Z,98.90
2018-04-19T04:06:40.073Z,99.00
2018-04-19T04:07:45.142Z,99.00
2018-04-19T04:08:49.264Z,99.00
2018-04-19T04:09:55.834Z,99.20
2018-04-19T04:11:00.303Z,99.30
2018-04-19T04:12:04.541Z,99.60
2018-04-19T04:13:08.644Z,99.80
2018-04-19T04:14:20.150Z,99.70
2018-04-19T04:15:24.595Z,99.60
2018-04-19T04:16:38.237Z,99.90
2018-04-19T04:17:53.434Z,99.90
2018-04-19T04:20:17.010Z,99.90
2018-04-19T04:21:40.151Z,99.90
2018-04-19T04:23:53.072Z,99.90
2018-04-19T04:24:57.178Z,99.90
2018-04-19T04:26:01.849Z,99.90
2018-04-19T04:27:06.057Z,99.90
2018-04-19T04:28:10.184Z,99.90
2018-04-19T04:29:16.130Z,99.90
2018-04-19T04:30:20.733Z,99.90
2018-04-19T04:31:25.145Z,99.90
2018-04-19T04:32:29.370Z,99.90
2018-04-19T04:33:33.811Z,99.90
2018-04-19T04:34:39.011Z,99.90
2018-04-19T04:35:43.785Z,99.90
2018-04-19T04:36:49.258Z,99.90
2018-04-19T04:37:53.399Z,99.90
2018-04-19T04:38:59.783Z,99.90
2018-04-19T04:40:03.965Z,99.90
2018-04-19T04:41:09.002Z,99.90
2018-04-19T04:42:14.302Z,99.90
2018-04-19T04:43:18.490Z,99.90
2018-04-19T04:44:23.228Z,99.90
2018-04-19T04:45:27.602Z,99.90
2018-04-19T04:46:32.195Z,99.90
2018-04-19T04:47:37.277Z,99.90
2018-04-19T04:48:42.238Z,99.90
2018-04-19T04:49:46.722Z,99.90
2018-04-19T04:50:50.977Z,99.90
2018-04-19T04:51:55.095Z,99.90
2018-04-19T04:52:59.174Z,99.90
2018-04-19T04:54:03.313Z,99.90
2018-04-19T04:55:07.508Z,99.90
2018-04-19T04:56:12.371Z,99.90
2018-04-19T04:57:16.898Z,99.90
2018-04-19T04:58:21.560Z,99.90
2018-04-19T04:59:26.399Z,99.90
2018-04-19T05:00:34.430Z,99.90
2018-04-19T05:01:41.042Z,99.90
2018-04-19T05:02:46.393Z,99.90
2018-04-19T05:03:53.767Z,99.90
2018-04-19T05:04:57.937Z,99.90
2018-04-19T05:06:02.553Z,99.90
2018-04-19T05:07:08.967Z,99.90
2018-04-19T05:08:13.178Z,99.90
2018-04-19T05:09:18.126Z,99.90
2018-04-19T05:10:23.267Z,99.90
2018-04-19T05:11:28.934Z,99.90
2018-04-19T05:12:44.062Z,99.90
2018-04-19T05:13:50.433Z,99.90
2018-04-19T05:14:56.597Z,99.90
2018-04-19T05:16:01.517Z,99.90
2018-04-19T05:17:06.494Z,99.90
2018-04-19T05:18:10.616Z,99.90
2018-04-19T05:19:14.929Z,99.90
2018-04-19T05:20:19.537Z,99.90
2018-04-19T05:21:25.105Z,99.90
2018-04-19T05:22:32.228Z,99.90
2018-04-19T05:23:36.586Z,99.90
2018-04-19T05:24:41.529Z,99.90
2018-04-19T05:25:47.460Z,99.90
2018-04-19T05:26:53.524Z,99.90
2018-04-19T05:27:58.903Z,99.90
2018-04-19T05:29:03.657Z,99.90
2018-04-19T05:30:10.021Z,99.90
2018-04-19T05:31:14.146Z,99.90
2018-04-19T05:32:18.975Z,99.90
2018-04-19T05:33:25.385Z,99.90
2018-04-19T05:34:32.520Z,99.80
2018-04-19T05:35:37.455Z,99.70
2018-04-19T05:36:43.032Z,99.90
2018-04-19T05:37:48.182Z,99.90
2018-04-19T05:38:53.810Z,99.90
2018-04-19T05:39:58.619Z,99.30
2018-04-19T05:41:02.893Z,99.20
2018-04-19T05:42:09.125Z,98.50
2018-04-19T05:43:16.538Z,98.50
2018-04-19T05:44:22.862Z,98.30
2018-04-19T05:45:29.049Z,98.00
2018-04-19T05:46:33.690Z,98.00
2018-04-19T05:47:38.384Z,97.90
2018-04-19T05:48:42.470Z,97.80
2018-04-19T05:49:48.425Z,97.70
2018-04-19T05:50:52.873Z,97.70
2018-04-19T05:51:57.615Z,97.80
2018-04-19T05:53:03.566Z,98.00
2018-04-19T05:54:11.936Z,98.10
2018-04-19T05:55:16.033Z,97.90
2018-04-19T05:56:20.466Z,97.80
2018-04-19T05:57:24.679Z,97.70
2018-04-19T05:58:30.846Z,97.50
2018-04-19T05:59:36.127Z,97.30
2018-04-19T06:00:42.038Z,97.10
2018-04-19T06:01:47.299Z,96.40
2018-04-19T06:02:54.913Z,96.40
2018-04-19T06:03:59.032Z,96.30
2018-04-19T06:05:03.731Z,96.30
2018-04-19T06:06:08.717Z,96.10
2018-04-19T06:07:13.978Z,96.20
2018-04-19T06:08:20.373Z,96.10
2018-04-19T06:09:25.375Z,95.90
2018-04-19T06:10:30.025Z,95.90
2018-04-19T06:11:35.527Z,95.50
2018-04-19T06:12:40.417Z,95.40
2018-04-19T06:13:45.962Z,95.40
2018-04-19T06:14:50.390Z,95.10
2018-04-19T06:15:54.485Z,94.90
2018-04-19T06:17:00.605Z,94.70
2018-04-19T06:18:06.026Z,94.50
2018-04-19T06:19:10.189Z,94.50
2018-04-19T06:20:15.059Z,94.00
2018-04-19T06:21:20.171Z,94.00
2018-04-19T06:22:25.046Z,93.70
2018-04-19T06:23:30.468Z,93.60
2018-04-19T06:24:35.670Z,93.40
2018-04-19T06:25:40.867Z,92.90
2018-04-19T06:26:45.712Z,92.80
2018-04-19T06:27:50.148Z,92.60
2018-04-19T06:28:54.388Z,92.70
2018-04-19T06:29:59.650Z,92.00
2018-04-19T06:31:04.014Z,92.00
2018-04-19T06:32:09.188Z,91.80
2018-04-19T06:33:13.875Z,91.90
2018-04-19T06:34:18.145Z,91.50
2018-04-19T06:35:22.714Z,91.30
2018-04-19T06:36:29.607Z,91.20
2018-04-19T06:37:36.858Z,91.20
2018-04-19T06:38:41.265Z,91.10
2018-04-19T06:39:46.337Z,90.70
2018-04-19T06:40:50.693Z,90.70
2018-04-19T06:41:55.463Z,90.30
2018-04-19T06:42:59.611Z,90.30
2018-04-19T06:44:03.758Z,90.20
2018-04-19T06:45:09.320Z,90.10
2018-04-19T06:46:15.049Z,90.00
2018-04-19T06:47:20.121Z,90.00
2018-04-19T06:48:26.761Z,89.80
2018-04-19T06:49:33.885Z,89.00
2018-04-19T06:50:41.214Z,88.20
2018-04-19T06:51:48.183Z,87.20
2018-04-19T06:52:53.452Z,86.00
2018-04-19T06:53:57.664Z,86.00
2018-04-19T06:55:02.198Z,84.80
2018-04-19T06:56:08.391Z,84.10
2018-04-19T06:57:13.352Z,83.60
2018-04-19T06:58:20.079Z,83.60
2018-04-19T06:59:24.923Z,82.70
2018-04-19T07:00:29.276Z,81.60
2018-04-19T07:01:34.264Z,82.10
2018-04-19T07:02:39.766Z,81.40
2018-04-19T07:03:44.909Z,80.70
2018-04-19T07:04:51.606Z,80.90
2018-04-19T07:05:55.815Z,80.90
2018-04-19T07:06:59.945Z,81.20
2018-04-19T07:08:04.871Z,80.30
2018-04-19T07:09:09.851Z,77.70
2018-04-19T07:10:14.768Z,77.80
2018-04-19T07:11:19.608Z,77.50
2018-04-19T07:12:24.118Z,78.00
2018-04-19T07:13:29.943Z,79.00
2018-04-19T07:14:35.711Z,78.20
2018-04-19T07:15:41.263Z,76.40
2018-04-19T07:16:47.025Z,74.00
2018-04-19T07:17:52.298Z,73.80
2018-04-19T07:18:57.499Z,73.00
2018-04-19T07:20:03.047Z,72.30
2018-04-19T07:21:08.245Z,72.70
2018-04-19T07:22:14.014Z,72.20
2018-04-19T07:23:20.129Z,72.20
2018-04-19T07:24:24.570Z,70.60
2018-04-19T07:25:28.927Z,70.50
2018-04-19T07:26:33.616Z,70.60
2018-04-19T07:27:37.706Z,69.70
2018-04-19T07:28:41.838Z,69.80
2018-04-19T07:29:46.103Z,68.50
2018-04-19T07:30:50.814Z,69.30
2018-04-19T07:31:56.052Z,68.30
2018-04-19T07:33:01.093Z,67.20
2018-04-19T07:34:06.160Z,68.30
2018-04-19T07:35:11.380Z,67.60
2018-04-19T07:36:17.478Z,67.40
2018-04-19T07:37:23.116Z,66.00
2018-04-19T07:38:28.108Z,65.60
2018-04-19T07:39:32.972Z,65.00
2018-04-19T07:40:37.409Z,66.10
2018-04-19T07:41:43.383Z,66.50
2018-04-19T07:42:47.636Z,63.90
2018-04-19T07:43:54.270Z,63.20
2018-04-19T07:44:59.948Z,63.40
2018-04-19T07:46:05.349Z,64.10
2018-04-19T07:47:09.790Z,62.80
2018-04-19T07:48:14.870Z,63.80
2018-04-19T07:49:20.353Z,61.20
2018-04-19T07:50:26.207Z,61.40
2018-04-19T07:51:31.651Z,60.00
2018-04-19T07:52:35.762Z,58.60
2018-04-19T07:53:41.088Z,59.20
2018-04-19T07:54:45.981Z,58.40
2018-04-19T07:55:52.236Z,58.50
2018-04-19T07:56:56.375Z,58.90
2018-04-19T07:58:01.487Z,57.50
2018-04-19T07:59:06.779Z,57.50
2018-04-19T08:00:10.941Z,57.30
2018-04-19T08:01:15.269Z,55.70
2018-04-19T08:02:19.869Z,57.20
2018-04-19T08:03:26.212Z,56.20
2018-04-19T08:04:31.741Z,53.60
2018-04-19T08:05:37.813Z,53.30
2018-04-19T08:06:42.260Z,53.30
2018-04-19T08:07:46.510Z,52.90
2018-04-19T08:08:51.393Z,54.20
2018-04-19T08:09:58.630Z,54.20
2018-04-19T08:11:02.781Z,55.20
2018-04-19T08:12:06.918Z,56.80
2018-04-19T08:13:11.742Z,53.40
2018-04-19T08:14:17.743Z,51.40
2018-04-19T08:15:22.308Z,51.20
2018-04-19T08:16:27.525Z,51.40
2018-04-19T08:17:32.025Z,51.00
2018-04-19T08:18:38.290Z,50.70
2018-04-19T08:19:43.654Z,50.60
2018-04-19T08:20:48.164Z,49.60
2018-04-19T08:21:52.786Z,48.40
2018-04-19T08:22:56.979Z,48.50
2018-04-19T08:24:01.131Z,48.80
2018-04-19T08:25:05.267Z,47.80
2018-04-19T08:26:09.678Z,48.30
2018-04-19T08:27:13.917Z,50.40
2018-04-19T08:28:18.166Z,46.30
2018-04-19T08:29:23.041Z,46.60
2018-04-19T08:30:27.515Z,46.60
2018-04-19T08:31:33.041Z,46.70
2018-04-19T08:32:37.713Z,47.60
2018-04-19T08:33:42.334Z,46.50
2018-04-19T08:34:46.416Z,46.30
2018-04-19T08:35:50.553Z,45.50
2018-04-19T08:36:55.655Z,44.70
2018-04-19T08:38:01.026Z,44.10
2018-04-19T08:39:06.754Z,45.20
2018-04-19T08:40:10.891Z,45.20
2018-04-19T08:41:15.686Z,44.10
2018-04-19T08:42:21.191Z,44.50
2018-04-19T08:43:25.334Z,45.30
2018-04-19T08:44:29.438Z,44.50
2018-04-19T08:45:33.613Z,43.60
2018-04-19T08:46:37.725Z,43.50
2018-04-19T08:47:42.768Z,42.80
2018-04-19T08:48:47.844Z,42.80
2018-04-19T08:49:52.410Z,43.40
2018-04-19T08:50:57.330Z,42.30
2018-04-19T08:52:02.108Z,42.40
2018-04-19T08:53:06.973Z,41.80
2018-04-19T08:54:11.082Z,41.40
2018-04-19T08:55:15.405Z,41.40
2018-04-19T08:56:20.539Z,43.10
2018-04-19T08:57:25.451Z,41.50
2018-04-19T08:58:29.604Z,41.50
2018-04-19T08:59:35.485Z,41.60
2018-04-19T09:00:41.443Z,41.20
2018-04-19T09:01:50.619Z,41.50
2018-04-19T09:02:58.925Z,42.30
2018-04-19T09:04:04.676Z,42.30
2018-04-19T09:05:09.664Z,42.20
2018-04-19T09:06:14.422Z,41.90
2018-04-19T09:07:19.450Z,41.80
2018-04-19T09:08:26.255Z,42.30
2018-04-19T09:09:32.297Z,41.30
2018-04-19T09:10:37.936Z,40.90
2018-04-19T09:11:55.852Z,40.60
2018-04-19T09:13:01.316Z,41.10
2018-04-19T09:14:08.323Z,40.40
2018-04-19T09:15:13.323Z,40.50
2018-04-19T09:16:18.922Z,40.70
2018-04-19T09:17:23.876Z,41.00
2018-04-19T09:18:28.010Z,41.40
2018-04-19T09:19:32.184Z,40.30
2018-04-19T09:20:38.407Z,40.70
2018-04-19T09:21:42.529Z,40.30
2018-04-19T09:22:46.718Z,39.80
2018-04-19T09:23:52.642Z,40.20
2018-04-19T09:24:57.679Z,39.80
2018-04-19T09:26:02.094Z,39.80
2018-04-19T09:27:07.183Z,41.00
2018-04-19T09:28:11.975Z,39.70
2018-04-19T09:29:17.147Z,38.90
2018-04-19T09:30:21.810Z,38.30
2018-04-19T09:31:28.791Z,37.90
2018-04-19T09:32:33.698Z,38.30
2018-04-19T09:33:38.408Z,38.20
2018-04-19T09:34:46.523Z,38.20
2018-04-19T09:35:51.382Z,37.70
2018-04-19T09:36:56.500Z,38.20
2018-04-19T09:38:02.415Z,37.80
2018-04-19T09:39:08.402Z,37.70
2018-04-19T09:40:14.641Z,37.30
2018-04-19T09:41:19.980Z,37.70
2018-04-19T09:42:24.099Z,37.00
2018-04-19T09:43:29.254Z,37.00
2018-04-19T09:44:35.190Z,34.90
2018-04-19T09:45:40.042Z,34.90
2018-04-19T09:46:45.487Z,36.10
2018-04-19T09:47:50.820Z,36.10
2018-04-19T09:48:54.955Z,35.00
2018-04-19T09:50:00.861Z,35.00
2018-04-19T09:51:07.470Z,33.90
2018-04-19T09:52:12.284Z,33.30
2018-04-19T09:53:18.712Z,33.30
2018-04-19T09:54:25.601Z,32.20
2018-04-19T09:55:34.061Z,32.30
2018-04-19T09:56:40.130Z,33.30
2018-04-19T09:57:53.289Z,33.30
2018-04-19T09:59:06.521Z,33.50
2018-04-19T10:00:13.278Z,32.10
2018-04-19T10:01:17.898Z,32.10
2018-04-19T10:02:27.567Z,33.80
2018-04-19T10:03:36.661Z,33.70
2018-04-19T10:04:46.091Z,34.10
2018-04-19T10:05:55.367Z,34.00
2018-04-19T10:06:59.910Z,34.00
2018-04-19T10:08:04.031Z,34.10
2018-04-19T10:09:10.910Z,33.80
2018-04-19T10:10:15.844Z,33.60
2018-04-19T10:11:20.702Z,33.60
2018-04-19T10:12:24.893Z,31.90
2018-04-19T10:14:34.940Z,32.40
2018-04-19T10:15:39.079Z,31.50
2018-04-19T10:16:43.275Z,30.90
2018-04-19T10:17:48.055Z,31.00
2018-04-19T10:18:52.792Z,32.20
2018-04-19T10:19:58.240Z,32.10
2018-04-19T10:21:07.574Z,31.20
2018-04-19T10:22:12.182Z,30.90
2018-04-19T10:23:16.329Z,31.10
2018-04-19T10:24:20.513Z,30.70
2018-04-19T10:25:25.833Z,30.40
2018-04-19T10:26:31.833Z,30.10
2018-04-19T10:27:36.404Z,30.00
2018-04-19T10:28:40.733Z,29.50
2018-04-19T10:29:45.121Z,29.60
2018-04-19T10:30:51.240Z,29.50
2018-04-19T10:31:55.552Z,29.70
2018-04-19T10:33:01.407Z,29.80
2018-04-19T10:34:11.153Z,30.00
2018-04-19T10:35:17.048Z,28.90
2018-04-19T10:36:22.031Z,28.90
2018-04-19T10:37:29.102Z,29.10
2018-04-19T10:38:36.646Z,29.00
2018-04-19T10:39:44.153Z,29.00
2018-04-19T10:40:50.694Z,29.60
2018-04-19T10:41:55.221Z,29.70
2018-04-19T10:43:00.800Z,29.00
2018-04-19T10:44:05.989Z,28.90
2018-04-19T10:45:11.674Z,28.40
2018-04-19T10:46:18.221Z,28.30
2018-04-19T10:47:28.256Z,29.00
2018-04-19T10:48:32.723Z,29.00
2018-04-19T10:49:36.847Z,27.60
2018-04-19T10:50:41.160Z,27.30
2018-04-19T10:51:45.438Z,27.60
2018-04-19T10:52:51.787Z,28.70
2018-04-19T10:53:55.980Z,28.30
2018-04-19T10:55:00.980Z,28.30
2018-04-19T10:56:08.524Z,27.80
2018-04-19T10:57:13.800Z,27.30
2018-04-19T10:58:21.855Z,26.90
2018-04-19T10:59:27.783Z,27.00
2018-04-19T11:00:32.953Z,27.60
2018-04-19T11:01:37.305Z,27.60
2018-04-19T11:02:41.458Z,27.70
2018-04-19T11:03:45.628Z,27.40
2018-04-19T11:04:50.512Z,27.00
2018-04-19T11:05:58.020Z,27.00
2018-04-19T11:07:03.474Z,27.00
2018-04-19T11:08:08.387Z,27.10
2018-04-19T11:09:13.520Z,27.20
2018-04-19T11:10:18.984Z,26.70
2018-04-19T11:11:24.234Z,26.70
2018-04-19T11:12:28.417Z,27.10
2018-04-19T11:13:32.984Z,26.60
2018-04-19T11:14:37.146Z,26.90
2018-04-19T11:15:42.715Z,26.30
2018-04-19T11:16:48.017Z,26.50
2018-04-19T11:17:52.164Z,26.80
2018-04-19T11:18:57.203Z,26.80
2018-04-19T11:20:03.597Z,26.50
2018-04-19T11:21:08.453Z,26.50
2018-04-19T11:22:13.224Z,26.00
2018-04-19T11:23:17.383Z,26.30
2018-04-19T11:24:21.511Z,26.10
2018-04-19T11:25:25.938Z,26.40
2018-04-19T11:26:32.108Z,26.30
2018-04-19T11:27:39.883Z,26.50
2018-04-19T11:28:45.053Z,26.10
2018-04-19T11:29:51.339Z,26.40
2018-04-19T11:30:56.303Z,26.50
2018-04-19T11:32:02.182Z,26.30
2018-04-19T11:33:09.456Z,26.80
2018-04-19T11:34:14.366Z,25.90
2018-04-19T11:35:20.677Z,25.60
2018-04-19T11:36:26.195Z,25.60
2018-04-19T11:37:31.472Z,26.00
2018-04-19T11:38:37.182Z,25.90
2018-04-19T11:39:42.995Z,26.50
2018-04-19T11:40:48.663Z,25.30
2018-04-19T11:41:53.587Z,25.30
2018-04-19T11:42:59.166Z,25.20
2018-04-19T11:44:04.068Z,25.00
2018-04-19T11:45:09.995Z,25.00
2018-04-19T11:46:15.140Z,25.40
2018-04-19T11:47:19.283Z,24.80
2018-04-19T11:48:25.730Z,24.80
2018-04-19T11:49:29.923Z,24.80
2018-04-19T11:50:36.705Z,24.50
2018-04-19T11:51:42.204Z,24.90
2018-04-19T11:52:46.310Z,24.90
2018-04-19T11:53:52.463Z,25.00
2018-04-19T11:54:57.430Z,24.60
2018-04-19T11:56:02.967Z,25.20
2018-04-19T11:57:10.689Z,24.80
2018-04-19T11:58:17.596Z,24.80
2018-04-19T11:59:23.280Z,24.50
2018-04-19T12:00:27.386Z,24.50
2018-04-19T12:01:33.311Z,24.30
2018-04-19T12:02:37.448Z,24.60
2018-04-19T12:03:41.647Z,24.00
2018-04-19T12:04:47.731Z,24.00
2018-04-19T12:05:52.197Z,24.30
2018-04-19T12:06:56.750Z,24.50
2018-04-19T12:08:00.883Z,24.50
2018-04-19T12:09:08.060Z,24.30
2018-04-19T12:10:12.787Z,24.30
2018-04-19T12:11:18.023Z,24.50
2018-04-19T12:12:22.899Z,24.30
2018-04-19T12:13:27.289Z,24.20
2018-04-19T12:14:32.105Z,24.20
2018-04-19T12:15:37.181Z,24.10
2018-04-19T12:16:42.795Z,24.20
2018-04-19T12:17:46.963Z,24.20
2018-04-19T12:18:51.809Z,24.10
2018-04-19T12:19:56.104Z,23.60
2018-04-19T12:21:00.413Z,23.90
2018-04-19T12:22:05.014Z,24.10
2018-04-19T12:23:09.505Z,24.30
2018-04-19T12:24:14.500Z,24.00
2018-04-19T12:25:21.660Z,24.30
2018-04-19T12:26:27.376Z,23.80
2018-04-19T12:27:31.689Z,23.80
2018-04-19T12:28:36.820Z,24.20
2018-04-19T12:29:42.119Z,24.00
2018-04-19T12:30:46.287Z,23.80
2018-04-19T12:31:51.852Z,24.00
2018-04-19T12:32:59.311Z,23.90
2018-04-19T12:34:03.883Z,23.60
2018-04-19T12:35:08.667Z,24.20
2018-04-19T12:36:12.842Z,23.90
2018-04-19T12:37:18.029Z,23.70
2018-04-19T12:38:22.874Z,23.60
2018-04-19T12:39:28.138Z,23.20
2018-04-19T12:40:33.065Z,23.10
2018-04-19T12:41:37.252Z,22.90
2018-04-19T12:42:41.703Z,23.10
2018-04-19T12:43:45.860Z,23.70
2018-04-19T12:44:51.804Z,23.30
2018-04-19T12:45:56.509Z,23.80
2018-04-19T12:47:02.528Z,23.10
2018-04-19T12:48:08.316Z,23.10
2018-04-19T12:49:13.651Z,23.30
2018-04-19T12:50:18.610Z,23.70
2018-04-19T12:51:23.706Z,23.20
2018-04-19T12:52:29.351Z,22.70
2018-04-19T12:53:35.400Z,22.70
2018-04-19T12:54:41.321Z,23.30
2018-04-19T12:55:48.262Z,22.90
2018-04-19T12:56:54.348Z,22.70
2018-04-19T12:57:58.739Z,22.90
2018-04-19T12:59:04.252Z,22.20
2018-04-19T13:00:10.429Z,22.50
2018-04-19T13:01:17.058Z,22.50
2018-04-19T13:02:21.953Z,22.50
2018-04-19T13:03:30.528Z,22.00
2018-04-19T13:04:35.829Z,21.70
2018-04-19T13:05:40.750Z,21.20
2018-04-19T13:06:48.788Z,21.20
2018-04-19T13:07:55.810Z,21.40
2018-04-19T13:09:02.835Z,21.80
2018-04-19T13:10:07.288Z,21.90
2018-04-19T13:11:12.343Z,21.50
2018-04-19T13:12:17.235Z,21.00
2018-04-19T13:13:24.149Z,21.40
2018-04-19T13:14:31.248Z,21.50
2018-04-19T13:15:38.598Z,21.80
2018-04-19T13:16:43.680Z,21.80
2018-04-19T13:17:51.410Z,21.50
2018-04-19T13:18:56.463Z,21.10
2018-04-19T13:20:02.345Z,21.20
2018-04-19T13:21:08.361Z,20.90
2018-04-19T13:22:14.906Z,20.80
2018-04-19T13:23:19.866Z,21.10
2018-04-19T13:24:24.268Z,21.00
2018-04-19T13:25:29.288Z,20.80
2018-04-19T13:26:34.364Z,20.80
2018-04-19T13:27:40.231Z,20.40
2018-04-19T13:28:44.472Z,20.80
2018-04-19T13:29:49.805Z,20.60
2018-04-19T13:30:56.748Z,20.90
2018-04-19T13:32:04.144Z,20.60
2018-04-19T13:33:09.562Z,19.90
2018-04-19T13:34:13.689Z,19.90
2018-04-19T13:35:18.598Z,19.80
2018-04-19T13:36:23.594Z,19.90
2018-04-19T13:37:28.503Z,20.00
2018-04-19T13:38:34.775Z,19.50
2018-04-19T13:39:39.816Z,19.40
2018-04-19T13:40:45.386Z,19.60
2018-04-19T13:41:51.518Z,19.90
2018-04-19T13:42:55.941Z,19.80
2018-04-19T13:44:03.696Z,19.50
2018-04-19T13:45:10.396Z,19.50
2018-04-19T13:46:15.829Z,20.10
2018-04-19T13:47:21.579Z,19.00
2018-04-19T13:48:27.288Z,19.00
2018-04-19T13:49:32.604Z,19.00
2018-04-19T13:50:36.881Z,19.10
2018-04-19T13:51:41.096Z,19.10
2018-04-19T13:52:45.255Z,19.50
2018-04-19T13:53:50.394Z,19.50
2018-04-19T13:54:55.407Z,19.40
2018-04-19T13:56:00.033Z,19.70
2018-04-19T13:57:04.250Z,20.40
2018-04-19T13:58:10.621Z,19.40
2018-04-19T13:59:17.058Z,19.40
2018-04-19T14:00:22.868Z,19.00
2018-04-19T14:01:30.734Z,19.30
2018-04-19T14:02:36.488Z,19.30
2018-04-19T14:03:41.245Z,19.40
2018-04-19T14:04:45.641Z,19.70